Terminal Aerodrome Forecast
Issued by NWS Central Illinois

Home | Current Version | Previous Version | Text Only | Print | Product List | Glossary On
Versions: 1 2 3 4 5 6 7 8 9 10 11 12 13 14 15
000
FTUS43 KILX 012200 AAC
TAFPIA
TAF AMD
KPIA 012222Z 0122/0218 12003KT P6SM VCTS BKN050CB
      TEMPO 0122/0124 1 1/2SM +TSRA BKN035CB
     FM020000 VRB01KT P6SM SCT070 SCT150
     FM020600 00000KT 5SM BR SKC
     FM021400 02004KT P6SM SCT050=

USA.gov is the U.S. government's official web portal to all federal, state and local government web resources and services.